sensor_id;sensor_type;location;lat;lon;timestamp;temperature;humidity
5059;DHT22;2548;52.050;11.036;2022-11-20T00:02:09;-3.60;99.90
5059;DHT22;2548;52.050;11.036;2022-11-20T00:04:38;-3.60;99.90
5059;DHT22;2548;52.050;11.036;2022-11-20T00:07:06;-3.60;99.90
5059;DHT22;2548;52.050;11.036;2022-11-20T00:09:35;-3.60;99.90
5059;DHT22;2548;52.050;11.036;2022-11-20T00:12:04;-3.60;99.90
5059;DHT22;2548;52.050;11.036;2022-11-20T00:14:32;-3.50;99.90
5059;DHT22;2548;52.050;11.036;2022-11-20T00:17:02;-3.50;99.90
5059;DHT22;2548;52.050;11.036;2022-11-20T00:19:31;-3.40;99.90
5059;DHT22;2548;52.050;11.036;2022-11-20T00:21:59;-3.40;99.90
5059;DHT22;2548;52.050;11.036;2022-11-20T00:24:27;-3.30;99.90
5059;DHT22;2548;52.050;11.036;2022-11-20T00:26:55;-3.30;99.90
5059;DHT22;2548;52.050;11.036;2022-11-20T00:29:23;-3.30;99.90
5059;DHT22;2548;52.050;11.036;2022-11-20T00:31:51;-3.30;99.90
5059;DHT22;2548;52.050;11.036;2022-11-20T00:34:21;-3.30;99.90
5059;DHT22;2548;52.050;11.036;2022-11-20T00:36:48;-3.30;99.90
5059;DHT22;2548;52.050;11.036;2022-11-20T00:39:16;-3.30;99.90
5059;DHT22;2548;52.050;11.036;2022-11-20T00:41:44;-3.30;99.90
5059;DHT22;2548;52.050;11.036;2022-11-20T00:44:12;-3.30;99.90
5059;DHT22;2548;52.050;11.036;2022-11-20T00:46:39;-3.40;99.90
5059;DHT22;2548;52.050;11.036;2022-11-20T00:49:07;-3.40;99.90
5059;DHT22;2548;52.050;11.036;2022-11-20T00:51:36;-3.40;99.90
5059;DHT22;2548;52.050;11.036;2022-11-20T00:54:03;-3.40;99.90
5059;DHT22;2548;52.050;11.036;2022-11-20T00:56:31;-3.30;99.90
5059;DHT22;2548;52.050;11.036;2022-11-20T00:58:59;-3.40;99.90
5059;DHT22;2548;52.050;11.036;2022-11-20T01:01:28;-3.40;99.90
5059;DHT22;2548;52.050;11.036;2022-11-20T01:03:57;-3.30;99.90
5059;DHT22;2548;52.050;11.036;2022-11-20T01:06:26;-3.40;99.90
5059;DHT22;2548;52.050;11.036;2022-11-20T01:08:57;-3.40;99.90
5059;DHT22;2548;52.050;11.036;2022-11-20T01:11:27;-3.40;99.90
5059;DHT22;2548;52.050;11.036;2022-11-20T01:13:56;-3.50;99.90
5059;DHT22;2548;52.050;11.036;2022-11-20T01:16:26;-3.60;99.90
5059;DHT22;2548;52.050;11.036;2022-11-20T01:18:57;-3.70;99.90
5059;DHT22;2548;52.050;11.036;2022-11-20T01:21:27;-3.70;99.90
5059;DHT22;2548;52.050;11.036;2022-11-20T01:23:57;-3.80;99.90
5059;DHT22;2548;52.050;11.036;2022-11-20T01:26:26;-3.80;99.90
5059;DHT22;2548;52.050;11.036;2022-11-20T01:28:55;-3.90;99.90
5059;DHT22;2548;52.050;11.036;2022-11-20T01:31:25;-3.90;99.90
5059;DHT22;2548;52.050;11.036;2022-11-20T01:33:54;-3.90;99.90
5059;DHT22;2548;52.050;11.036;2022-11-20T01:36:24;-4.00;99.90
5059;DHT22;2548;52.050;11.036;2022-11-20T01:38:53;-4.00;99.90
5059;DHT22;2548;52.050;11.036;2022-11-20T01:41:23;-4.00;99.90
5059;DHT22;2548;52.050;11.036;2022-11-20T01:44:11;-4.00;99.90
5059;DHT22;2548;52.050;11.036;2022-11-20T01:46:50;-4.10;99.90
5059;DHT22;2548;52.050;11.036;2022-11-20T01:49:22;-4.10;99.90
5059;DHT22;2548;52.050;11.036;2022-11-20T01:51:54;-4.10;99.90
5059;DHT22;2548;52.050;11.036;2022-11-20T01:54:24;-4.20;99.90
5059;DHT22;2548;52.050;11.036;2022-11-20T01:56:55;-4.20;99.90
5059;DHT22;2548;52.050;11.036;2022-11-20T01:59:24;-4.20;99.90
5059;DHT22;2548;52.050;11.036;2022-11-20T02:01:53;-4.10;99.90
5059;DHT22;2548;52.050;11.036;2022-11-20T02:04:21;-4.10;99.90
5059;DHT22;2548;52.050;11.036;2022-11-20T02:06:51;-4.10;99.90
5059;DHT22;2548;52.050;11.036;2022-11-20T02:09:22;-4.10;99.90
5059;DHT22;2548;52.050;11.036;2022-11-20T02:11:49;-4.10;99.90
5059;DHT22;2548;52.050;11.036;2022-11-20T02:14:19;-4.10;99.90
5059;DHT22;2548;52.050;11.036;2022-11-20T02:16:47;-4.10;99.90
5059;DHT22;2548;52.050;11.036;2022-11-20T02:19:21;-4.20;99.90
5059;DHT22;2548;52.050;11.036;2022-11-20T02:21:55;-4.20;99.90
5059;DHT22;2548;52.050;11.036;2022-11-20T02:24:25;-4.20;99.90
5059;DHT22;2548;52.050;11.036;2022-11-20T02:26:54;-4.30;99.90
5059;DHT22;2548;52.050;11.036;2022-11-20T02:29:25;-4.30;99.90
5059;DHT22;2548;52.050;11.036;2022-11-20T02:31:55;-4.30;99.90
5059;DHT22;2548;52.050;11.036;2022-11-20T02:34:23;-4.30;99.90
5059;DHT22;2548;52.050;11.036;2022-11-20T02:36:51;-4.40;99.90
5059;DHT22;2548;52.050;11.036;2022-11-20T02:39:20;-4.40;99.90
5059;DHT22;2548;52.050;11.036;2022-11-20T02:41:49;-4.50;99.90
5059;DHT22;2548;52.050;11.036;2022-11-20T02:44:16;-4.50;99.90
5059;DHT22;2548;52.050;11.036;2022-11-20T02:46:44;-4.50;99.90
5059;DHT22;2548;52.050;11.036;2022-11-20T02:49:11;-4.40;99.90
5059;DHT22;2548;52.050;11.036;2022-11-20T02:51:39;-4.30;99.90
5059;DHT22;2548;52.050;11.036;2022-11-20T02:54:06;-4.30;99.90
5059;DHT22;2548;52.050;11.036;2022-11-20T03:00:23;-4.30;99.90
5059;DHT22;2548;52.050;11.036;2022-11-20T03:02:50;-4.40;99.90
5059;DHT22;2548;52.050;11.036;2022-11-20T03:05:18;-4.40;99.90
5059;DHT22;2548;52.050;11.036;2022-11-20T03:07:45;-4.30;99.90
5059;DHT22;2548;52.050;11.036;2022-11-20T03:10:13;-4.30;99.90
5059;DHT22;2548;52.050;11.036;2022-11-20T03:12:40;-4.30;99.90
5059;DHT22;2548;52.050;11.036;2022-11-20T03:15:08;-4.30;99.90
5059;DHT22;2548;52.050;11.036;2022-11-20T03:17:37;-4.30;99.90
5059;DHT22;2548;52.050;11.036;2022-11-20T03:20:06;-4.40;99.90
5059;DHT22;2548;52.050;11.036;2022-11-20T03:22:35;-4.40;99.90
5059;DHT22;2548;52.050;11.036;2022-11-20T03:25:02;-4.50;99.90
5059;DHT22;2548;52.050;11.036;2022-11-20T03:27:32;-4.50;99.90
5059;DHT22;2548;52.050;11.036;2022-11-20T03:30:00;-4.50;99.90
5059;DHT22;2548;52.050;11.036;2022-11-20T03:32:27;-4.50;99.90
5059;DHT22;2548;52.050;11.036;2022-11-20T03:34:56;-4.50;99.90
5059;DHT22;2548;52.050;11.036;2022-11-20T03:37:23;-4.50;99.90
5059;DHT22;2548;52.050;11.036;2022-11-20T03:39:51;-4.40;99.90
5059;DHT22;2548;52.050;11.036;2022-11-20T03:42:18;-4.30;99.90
5059;DHT22;2548;52.050;11.036;2022-11-20T03:45:06;-4.30;99.90
5059;DHT22;2548;52.050;11.036;2022-11-20T03:47:34;-4.30;99.90
5059;DHT22;2548;52.050;11.036;2022-11-20T03:50:03;-4.20;99.90
5059;DHT22;2548;52.050;11.036;2022-11-20T03:52:31;-4.20;99.90
5059;DHT22;2548;52.050;11.036;2022-11-20T03:54:58;-4.20;99.90
5059;DHT22;2548;52.050;11.036;2022-11-20T03:57:25;-4.10;99.90
5059;DHT22;2548;52.050;11.036;2022-11-20T03:59:53;-4.10;99.90
5059;DHT22;2548;52.050;11.036;2022-11-20T04:02:20;-4.20;99.90
5059;DHT22;2548;52.050;11.036;2022-11-20T04:04:48;-4.20;99.90
5059;DHT22;2548;52.050;11.036;2022-11-20T04:07:16;-4.30;99.90
5059;DHT22;2548;52.050;11.036;2022-11-20T04:09:44;-4.40;99.90
5059;DHT22;2548;52.050;11.036;2022-11-20T04:12:11;-4.50;99.90
5059;DHT22;2548;52.050;11.036;2022-11-20T04:14:39;-4.60;99.90
5059;DHT22;2548;52.050;11.036;2022-11-20T04:17:06;-4.70;99.90
5059;DHT22;2548;52.050;11.036;2022-11-20T04:19:33;-4.80;99.90
5059;DHT22;2548;52.050;11.036;2022-11-20T04:22:01;-4.90;99.90
5059;DHT22;2548;52.050;11.036;2022-11-20T04:24:29;-4.90;99.90
5059;DHT22;2548;52.050;11.036;2022-11-20T04:26:57;-5.00;99.90
5059;DHT22;2548;52.050;11.036;2022-11-20T04:29:24;-5.00;99.90
5059;DHT22;2548;52.050;11.036;2022-11-20T04:31:52;-5.00;99.90
5059;DHT22;2548;52.050;11.036;2022-11-20T04:34:19;-5.00;99.90
5059;DHT22;2548;52.050;11.036;2022-11-20T04:36:46;-5.00;99.90
5059;DHT22;2548;52.050;11.036;2022-11-20T04:39:14;-5.00;99.90
5059;DHT22;2548;52.050;11.036;2022-11-20T04:41:44;-5.00;99.90
5059;DHT22;2548;52.050;11.036;2022-11-20T04:44:11;-5.00;99.90
5059;DHT22;2548;52.050;11.036;2022-11-20T04:46:41;-4.90;99.90
5059;DHT22;2548;52.050;11.036;2022-11-20T04:49:10;-4.90;99.90
5059;DHT22;2548;52.050;11.036;2022-11-20T04:51:37;-4.90;99.90
5059;DHT22;2548;52.050;11.036;2022-11-20T04:54:05;-4.80;99.90
5059;DHT22;2548;52.050;11.036;2022-11-20T04:56:32;-4.80;99.90
5059;DHT22;2548;52.050;11.036;2022-11-20T04:59:02;-4.70;99.90
5059;DHT22;2548;52.050;11.036;2022-11-20T05:01:29;-4.60;99.90
5059;DHT22;2548;52.050;11.036;2022-11-20T05:03:58;-4.60;99.90
5059;DHT22;2548;52.050;11.036;2022-11-20T05:06:25;-4.50;99.90
5059;DHT22;2548;52.050;11.036;2022-11-20T05:08:53;-4.50;99.90
5059;DHT22;2548;52.050;11.036;2022-11-20T05:11:21;-4.50;99.90
5059;DHT22;2548;52.050;11.036;2022-11-20T05:13:49;-4.60;99.90
5059;DHT22;2548;52.050;11.036;2022-11-20T05:16:21;-4.60;99.90
5059;DHT22;2548;52.050;11.036;2022-11-20T05:18:49;-4.70;99.90
5059;DHT22;2548;52.050;11.036;2022-11-20T05:21:17;-4.70;99.90
5059;DHT22;2548;52.050;11.036;2022-11-20T05:23:45;-4.70;99.90
5059;DHT22;2548;52.050;11.036;2022-11-20T05:26:14;-4.70;99.90
5059;DHT22;2548;52.050;11.036;2022-11-20T05:28:41;-4.70;99.90
5059;DHT22;2548;52.050;11.036;2022-11-20T05:31:11;-4.70;99.90
5059;DHT22;2548;52.050;11.036;2022-11-20T05:33:42;-4.70;99.90
5059;DHT22;2548;52.050;11.036;2022-11-20T05:36:10;-4.70;99.90
5059;DHT22;2548;52.050;11.036;2022-11-20T05:38:38;-4.60;99.90
5059;DHT22;2548;52.050;11.036;2022-11-20T05:41:06;-4.60;99.90
5059;DHT22;2548;52.050;11.036;2022-11-20T05:43:34;-4.50;99.90
5059;DHT22;2548;52.050;11.036;2022-11-20T05:46:01;-4.50;99.90
5059;DHT22;2548;52.050;11.036;2022-11-20T05:48:30;-4.50;99.90
5059;DHT22;2548;52.050;11.036;2022-11-20T05:50:59;-4.50;99.90
5059;DHT22;2548;52.050;11.036;2022-11-20T05:53:27;-4.70;99.90
5059;DHT22;2548;52.050;11.036;2022-11-20T05:55:58;-4.80;99.90
5059;DHT22;2548;52.050;11.036;2022-11-20T05:58:27;-4.90;99.90
5059;DHT22;2548;52.050;11.036;2022-11-20T06:00:54;-5.00;99.90
5059;DHT22;2548;52.050;11.036;2022-11-20T06:03:22;-5.10;99.90
5059;DHT22;2548;52.050;11.036;2022-11-20T06:05:49;-5.20;99.90
5059;DHT22;2548;52.050;11.036;2022-11-20T06:08:18;-5.20;99.90
5059;DHT22;2548;52.050;11.036;2022-11-20T06:10:46;-5.20;99.90
5059;DHT22;2548;52.050;11.036;2022-11-20T06:13:13;-5.30;99.90
5059;DHT22;2548;52.050;11.036;2022-11-20T06:15:40;-5.30;99.90
5059;DHT22;2548;52.050;11.036;2022-11-20T06:18:08;-5.40;99.90
5059;DHT22;2548;52.050;11.036;2022-11-20T06:20:35;-5.40;99.90
5059;DHT22;2548;52.050;11.036;2022-11-20T06:23:03;-5.40;99.90
5059;DHT22;2548;52.050;11.036;2022-11-20T06:25:32;-5.40;99.90
5059;DHT22;2548;52.050;11.036;2022-11-20T06:27:59;-5.50;99.90
5059;DHT22;2548;52.050;11.036;2022-11-20T06:30:26;-5.50;99.90
5059;DHT22;2548;52.050;11.036;2022-11-20T06:32:54;-5.40;99.90
5059;DHT22;2548;52.050;11.036;2022-11-20T06:35:21;-5.30;99.90
5059;DHT22;2548;52.050;11.036;2022-11-20T06:37:49;-5.20;99.90
5059;DHT22;2548;52.050;11.036;2022-11-20T06:40:16;-5.10;99.90
5059;DHT22;2548;52.050;11.036;2022-11-20T06:42:45;-5.00;99.90
5059;DHT22;2548;52.050;11.036;2022-11-20T06:45:13;-5.00;99.90
5059;DHT22;2548;52.050;11.036;2022-11-20T06:47:40;-4.90;99.90
5059;DHT22;2548;52.050;11.036;2022-11-20T06:50:08;-4.90;99.90
5059;DHT22;2548;52.050;11.036;2022-11-20T06:52:35;-4.80;99.90
5059;DHT22;2548;52.050;11.036;2022-11-20T06:55:04;-4.80;99.90
5059;DHT22;2548;52.050;11.036;2022-11-20T06:57:31;-4.70;99.90
5059;DHT22;2548;52.050;11.036;2022-11-20T07:00:00;-4.70;99.90
5059;DHT22;2548;52.050;11.036;2022-11-20T07:02:28;-4.70;99.90
5059;DHT22;2548;52.050;11.036;2022-11-20T07:04:55;-4.70;99.90
5059;DHT22;2548;52.050;11.036;2022-11-20T07:07:22;-4.70;99.90
5059;DHT22;2548;52.050;11.036;2022-11-20T07:09:50;-4.90;99.90
5059;DHT22;2548;52.050;11.036;2022-11-20T07:12:17;-5.20;99.90
5059;DHT22;2548;52.050;11.036;2022-11-20T07:14:45;-5.20;99.90
5059;DHT22;2548;52.050;11.036;2022-11-20T07:17:14;-5.30;99.90
5059;DHT22;2548;52.050;11.036;2022-11-20T07:19:41;-5.30;99.90
5059;DHT22;2548;52.050;11.036;2022-11-20T07:22:09;-5.30;99.90
5059;DHT22;2548;52.050;11.036;2022-11-20T07:24:36;-5.30;99.90
5059;DHT22;2548;52.050;11.036;2022-11-20T07:27:04;-5.30;99.90
5059;DHT22;2548;52.050;11.036;2022-11-20T07:29:32;-5.30;99.90
5059;DHT22;2548;52.050;11.036;2022-11-20T07:31:59;-5.40;99.90
5059;DHT22;2548;52.050;11.036;2022-11-20T07:34:28;-5.30;99.90
5059;DHT22;2548;52.050;11.036;2022-11-20T07:36:55;-5.40;99.90
5059;DHT22;2548;52.050;11.036;2022-11-20T07:39:23;-5.40;99.90
5059;DHT22;2548;52.050;11.036;2022-11-20T07:41:50;-5.40;99.90
5059;DHT22;2548;52.050;11.036;2022-11-20T07:44:18;-5.30;99.90
5059;DHT22;2548;52.050;11.036;2022-11-20T07:46:45;-5.20;99.90
5059;DHT22;2548;52.050;11.036;2022-11-20T07:49:12;-5.10;99.90
5059;DHT22;2548;52.050;11.036;2022-11-20T07:51:41;-5.00;99.90
5059;DHT22;2548;52.050;11.036;2022-11-20T07:54:09;-4.90;99.90
5059;DHT22;2548;52.050;11.036;2022-11-20T07:56:36;-4.70;99.90
5059;DHT22;2548;52.050;11.036;2022-11-20T07:59:04;-4.60;99.90
5059;DHT22;2548;52.050;11.036;2022-11-20T08:01:31;-4.40;99.90
5059;DHT22;2548;52.050;11.036;2022-11-20T08:03:58;-4.30;99.90
5059;DHT22;2548;52.050;11.036;2022-11-20T08:06:26;-4.10;99.90
5059;DHT22;2548;52.050;11.036;2022-11-20T08:08:55;-4.00;99.90
5059;DHT22;2548;52.050;11.036;2022-11-20T08:11:22;-3.90;99.90
5059;DHT22;2548;52.050;11.036;2022-11-20T08:14:07;-3.70;99.90
5059;DHT22;2548;52.050;11.036;2022-11-20T08:16:42;-3.60;99.90
5059;DHT22;2548;52.050;11.036;2022-11-20T08:19:09;-3.50;99.90
5059;DHT22;2548;52.050;11.036;2022-11-20T08:21:37;-3.40;99.90
5059;DHT22;2548;52.050;11.036;2022-11-20T08:24:07;-3.30;99.90
5059;DHT22;2548;52.050;11.036;2022-11-20T08:26:35;-3.20;99.90
5059;DHT22;2548;52.050;11.036;2022-11-20T08:29:04;-3.10;99.90
5059;DHT22;2548;52.050;11.036;2022-11-20T08:31:32;-3.00;99.90
5059;DHT22;2548;52.050;11.036;2022-11-20T08:33:59;-2.80;99.90
5059;DHT22;2548;52.050;11.036;2022-11-20T08:36:27;-2.70;99.90
5059;DHT22;2548;52.050;11.036;2022-11-20T08:38:55;-2.50;99.90
5059;DHT22;2548;52.050;11.036;2022-11-20T08:41:24;-2.30;99.90
5059;DHT22;2548;52.050;11.036;2022-11-20T08:43:53;-2.20;99.90
5059;DHT22;2548;52.050;11.036;2022-11-20T08:46:22;-2.10;99.90
5059;DHT22;2548;52.050;11.036;2022-11-20T08:48:50;-2.00;99.90
5059;DHT22;2548;52.050;11.036;2022-11-20T08:51:18;-1.90;99.90
5059;DHT22;2548;52.050;11.036;2022-11-20T08:53:45;-1.80;99.90
5059;DHT22;2548;52.050;11.036;2022-11-20T08:56:15;-1.80;99.90
5059;DHT22;2548;52.050;11.036;2022-11-20T08:58:44;-1.70;99.90
5059;DHT22;2548;52.050;11.036;2022-11-20T09:01:11;-1.70;99.90
5059;DHT22;2548;52.050;11.036;2022-11-20T09:03:38;-1.70;99.90
5059;DHT22;2548;52.050;11.036;2022-11-20T09:06:07;-1.70;99.90
5059;DHT22;2548;52.050;11.036;2022-11-20T09:08:35;-1.70;99.90
5059;DHT22;2548;52.050;11.036;2022-11-20T09:11:04;-1.70;99.90
5059;DHT22;2548;52.050;11.036;2022-11-20T09:13:33;-1.70;99.90
5059;DHT22;2548;52.050;11.036;2022-11-20T09:16:04;-1.70;99.90
5059;DHT22;2548;52.050;11.036;2022-11-20T09:18:33;-1.70;99.90
5059;DHT22;2548;52.050;11.036;2022-11-20T09:21:04;-1.70;99.90
5059;DHT22;2548;52.050;11.036;2022-11-20T09:23:33;-1.70;99.90
5059;DHT22;2548;52.050;11.036;2022-11-20T09:26:02;-1.70;99.90
5059;DHT22;2548;52.050;11.036;2022-11-20T09:28:30;-1.60;99.90
5059;DHT22;2548;52.050;11.036;2022-11-20T09:30:58;-1.60;99.90
5059;DHT22;2548;52.050;11.036;2022-11-20T09:33:27;-1.60;99.90
5059;DHT22;2548;52.050;11.036;2022-11-20T09:35:54;-1.50;99.90
5059;DHT22;2548;52.050;11.036;2022-11-20T09:38:22;-1.50;99.90
5059;DHT22;2548;52.050;11.036;2022-11-20T09:40:55;-1.50;99.90
5059;DHT22;2548;52.050;11.036;2022-11-20T09:43:32;-1.50;99.90
5059;DHT22;2548;52.050;11.036;2022-11-20T09:46:12;-1.50;99.90
5059;DHT22;2548;52.050;11.036;2022-11-20T09:48:58;-1.40;99.90
5059;DHT22;2548;52.050;11.036;2022-11-20T09:51:36;-1.40;99.90
5059;DHT22;2548;52.050;11.036;2022-11-20T09:54:15;-1.40;99.90
5059;DHT22;2548;52.050;11.036;2022-11-20T09:56:46;-1.40;99.90
5059;DHT22;2548;52.050;11.036;2022-11-20T09:59:30;-1.40;99.90
5059;DHT22;2548;52.050;11.036;2022-11-20T10:02:00;-1.40;99.90
5059;DHT22;2548;52.050;11.036;2022-11-20T10:04:31;-1.40;99.90
5059;DHT22;2548;52.050;11.036;2022-11-20T10:07:04;-1.30;99.90
5059;DHT22;2548;52.050;11.036;2022-11-20T10:09:37;-1.30;99.90
5059;DHT22;2548;52.050;11.036;2022-11-20T10:12:14;-1.30;99.90
5059;DHT22;2548;52.050;11.036;2022-11-20T10:14:53;-1.30;99.90
5059;DHT22;2548;52.050;11.036;2022-11-20T10:17:44;-1.30;99.90
5059;DHT22;2548;52.050;11.036;2022-11-20T10:20:25;-1.20;99.90
5059;DHT22;2548;52.050;11.036;2022-11-20T10:23:24;-1.20;99.90
5059;DHT22;2548;52.050;11.036;2022-11-20T10:26:00;-1.10;99.90
5059;DHT22;2548;52.050;11.036;2022-11-20T10:28:39;-1.10;99.90
5059;DHT22;2548;52.050;11.036;2022-11-20T10:31:14;-1.00;99.90
5059;DHT22;2548;52.050;11.036;2022-11-20T10:33:45;-1.00;99.90
5059;DHT22;2548;52.050;11.036;2022-11-20T10:36:21;-1.00;99.90
5059;DHT22;2548;52.050;11.036;2022-11-20T10:38:53;-1.00;99.90
5059;DHT22;2548;52.050;11.036;2022-11-20T10:41:24;-0.90;99.90
5059;DHT22;2548;52.050;11.036;2022-11-20T10:44:00;-0.90;99.90
5059;DHT22;2548;52.050;11.036;2022-11-20T10:46:34;-0.90;99.90
5059;DHT22;2548;52.050;11.036;2022-11-20T10:49:09;-0.90;99.90
5059;DHT22;2548;52.050;11.036;2022-11-20T10:51:47;-0.80;99.90
5059;DHT22;2548;52.050;11.036;2022-11-20T10:54:22;-0.80;99.90
5059;DHT22;2548;52.050;11.036;2022-11-20T10:56:53;-0.70;99.90
5059;DHT22;2548;52.050;11.036;2022-11-20T10:59:41;-0.60;99.90
5059;DHT22;2548;52.050;11.036;2022-11-20T11:02:18;-0.40;99.90
5059;DHT22;2548;52.050;11.036;2022-11-20T11:04:47;-0.30;99.90
5059;DHT22;2548;52.050;11.036;2022-11-20T11:07:20;-0.20;99.90
5059;DHT22;2548;52.050;11.036;2022-11-20T11:09:50;-0.10;99.90
5059;DHT22;2548;52.050;11.036;2022-11-20T11:12:19;0.00;99.90
5059;DHT22;2548;52.050;11.036;2022-11-20T11:14:49;0.00;99.90
5059;DHT22;2548;52.050;11.036;2022-11-20T11:17:26;0.00;99.90
5059;DHT22;2548;52.050;11.036;2022-11-20T11:20:02;0.00;99.90
5059;DHT22;2548;52.050;11.036;2022-11-20T11:22:33;0.10;99.90
5059;DHT22;2548;52.050;11.036;2022-11-20T11:25:01;0.10;99.90
5059;DHT22;2548;52.050;11.036;2022-11-20T11:27:29;0.30;99.90
5059;DHT22;2548;52.050;11.036;2022-11-20T11:30:13;0.30;99.90
5059;DHT22;2548;52.050;11.036;2022-11-20T11:32:42;0.40;99.90
5059;DHT22;2548;52.050;11.036;2022-11-20T11:35:20;0.50;99.90
5059;DHT22;2548;52.050;11.036;2022-11-20T11:37:50;0.70;99.90
5059;DHT22;2548;52.050;11.036;2022-11-20T11:40:21;0.90;99.90
5059;DHT22;2548;52.050;11.036;2022-11-20T11:42:54;1.00;99.90
5059;DHT22;2548;52.050;11.036;2022-11-20T11:45:22;1.10;99.90
5059;DHT22;2548;52.050;11.036;2022-11-20T11:47:51;1.10;99.90
5059;DHT22;2548;52.050;11.036;2022-11-20T11:50:21;1.10;99.90
5059;DHT22;2548;52.050;11.036;2022-11-20T11:52:58;1.10;99.90
5059;DHT22;2548;52.050;11.036;2022-11-20T11:55:33;1.20;99.90
5059;DHT22;2548;52.050;11.036;2022-11-20T11:58:14;1.40;99.90
5059;DHT22;2548;52.050;11.036;2022-11-20T12:00:50;1.50;99.90
5059;DHT22;2548;52.050;11.036;2022-11-20T12:03:21;1.40;99.90
5059;DHT22;2548;52.050;11.036;2022-11-20T12:05:57;1.20;99.90
5059;DHT22;2548;52.050;11.036;2022-11-20T12:08:30;1.10;99.90
5059;DHT22;2548;52.050;11.036;2022-11-20T12:11:03;1.10;99.90
5059;DHT22;2548;52.050;11.036;2022-11-20T12:13:44;1.20;99.90
5059;DHT22;2548;52.050;11.036;2022-11-20T12:16:16;1.30;99.90
5059;DHT22;2548;52.050;11.036;2022-11-20T12:18:51;1.50;99.90
5059;DHT22;2548;52.050;11.036;2022-11-20T12:21:20;1.50;99.90
5059;DHT22;2548;52.050;11.036;2022-11-20T12:24:11;1.60;99.90
5059;DHT22;2548;52.050;11.036;2022-11-20T12:26:51;1.70;99.90
5059;DHT22;2548;52.050;11.036;2022-11-20T12:29:32;1.80;99.90
5059;DHT22;2548;52.050;11.036;2022-11-20T12:34:58;1.90;99.90
5059;DHT22;2548;52.050;11.036;2022-11-20T12:37:36;2.10;99.90
5059;DHT22;2548;52.050;11.036;2022-11-20T12:40:20;2.20;99.90
5059;DHT22;2548;52.050;11.036;2022-11-20T12:43:00;2.30;99.90
5059;DHT22;2548;52.050;11.036;2022-11-20T12:45:57;2.30;99.90
5059;DHT22;2548;52.050;11.036;2022-11-20T12:48:52;2.20;99.90
5059;DHT22;2548;52.050;11.036;2022-11-20T12:54:44;2.10;99.90
5059;DHT22;2548;52.050;11.036;2022-11-20T12:57:21;2.10;99.90
5059;DHT22;2548;52.050;11.036;2022-11-20T13:00:06;2.00;99.90
5059;DHT22;2548;52.050;11.036;2022-11-20T13:02:41;1.90;99.90
5059;DHT22;2548;52.050;11.036;2022-11-20T13:05:19;1.90;99.90
5059;DHT22;2548;52.050;11.036;2022-11-20T13:07:48;1.80;99.90
5059;DHT22;2548;52.050;11.036;2022-11-20T13:10:21;1.80;99.90
5059;DHT22;2548;52.050;11.036;2022-11-20T13:12:57;1.80;99.90
5059;DHT22;2548;52.050;11.036;2022-11-20T13:15:36;1.70;99.90
5059;DHT22;2548;52.050;11.036;2022-11-20T13:18:10;1.90;99.90
5059;DHT22;2548;52.050;11.036;2022-11-20T13:20:42;2.00;99.90
5059;DHT22;2548;52.050;11.036;2022-11-20T13:23:10;2.10;99.90
5059;DHT22;2548;52.050;11.036;2022-11-20T13:25:39;2.20;99.90
5059;DHT22;2548;52.050;11.036;2022-11-20T13:28:29;2.20;99.90
5059;DHT22;2548;52.050;11.036;2022-11-20T13:30:57;2.20;99.90
5059;DHT22;2548;52.050;11.036;2022-11-20T13:33:29;2.20;99.90
5059;DHT22;2548;52.050;11.036;2022-11-20T13:35:59;2.10;99.90
5059;DHT22;2548;52.050;11.036;2022-11-20T13:38:39;2.10;99.90
5059;DHT22;2548;52.050;11.036;2022-11-20T13:41:08;2.10;99.90
5059;DHT22;2548;52.050;11.036;2022-11-20T13:43:52;2.10;99.90
5059;DHT22;2548;52.050;11.036;2022-11-20T13:46:19;2.10;99.90
5059;DHT22;2548;52.050;11.036;2022-11-20T13:48:51;2.00;99.90
5059;DHT22;2548;52.050;11.036;2022-11-20T13:51:30;2.00;99.90
5059;DHT22;2548;52.050;11.036;2022-11-20T13:57:17;2.00;99.90
5059;DHT22;2548;52.050;11.036;2022-11-20T13:59:57;1.90;99.90
5059;DHT22;2548;52.050;11.036;2022-11-20T14:02:27;1.90;99.90
5059;DHT22;2548;52.050;11.036;2022-11-20T14:04:58;1.80;99.90
5059;DHT22;2548;52.050;11.036;2022-11-20T14:07:32;1.70;99.90
5059;DHT22;2548;52.050;11.036;2022-11-20T14:10:02;1.60;99.90
5059;DHT22;2548;52.050;11.036;2022-11-20T14:12:31;1.60;99.90
5059;DHT22;2548;52.050;11.036;2022-11-20T14:15:00;1.50;99.90
5059;DHT22;2548;52.050;11.036;2022-11-20T14:17:31;1.50;99.90
5059;DHT22;2548;52.050;11.036;2022-11-20T14:20:01;1.30;99.90
5059;DHT22;2548;52.050;11.036;2022-11-20T14:22:29;1.30;99.90
5059;DHT22;2548;52.050;11.036;2022-11-20T14:25:06;1.20;99.90
5059;DHT22;2548;52.050;11.036;2022-11-20T14:27:36;1.10;99.90
5059;DHT22;2548;52.050;11.036;2022-11-20T14:30:11;1.00;99.90
5059;DHT22;2548;52.050;11.036;2022-11-20T14:32:41;0.90;99.90
5059;DHT22;2548;52.050;11.036;2022-11-20T14:35:13;0.80;99.90
5059;DHT22;2548;52.050;11.036;2022-11-20T14:37:41;0.70;99.90
5059;DHT22;2548;52.050;11.036;2022-11-20T14:40:23;0.70;99.90
5059;DHT22;2548;52.050;11.036;2022-11-20T14:42:51;0.60;99.90
5059;DHT22;2548;52.050;11.036;2022-11-20T14:45:20;0.50;99.90
5059;DHT22;2548;52.050;11.036;2022-11-20T14:47:49;0.50;99.90
5059;DHT22;2548;52.050;11.036;2022-11-20T14:50:23;0.40;99.90
5059;DHT22;2548;52.050;11.036;2022-11-20T14:52:52;0.30;99.90
5059;DHT22;2548;52.050;11.036;2022-11-20T14:55:28;0.30;99.90
5059;DHT22;2548;52.050;11.036;2022-11-20T14:57:57;0.20;99.90
5059;DHT22;2548;52.050;11.036;2022-11-20T15:00:27;0.10;99.90
5059;DHT22;2548;52.050;11.036;2022-11-20T15:02:54;0.10;99.90
5059;DHT22;2548;52.050;11.036;2022-11-20T15:05:24;0.00;99.90
5059;DHT22;2548;52.050;11.036;2022-11-20T15:08:04;0.00;99.90
5059;DHT22;2548;52.050;11.036;2022-11-20T15:10:33;0.00;99.90
5059;DHT22;2548;52.050;11.036;2022-11-20T15:13:03;-0.10;99.90
5059;DHT22;2548;52.050;11.036;2022-11-20T15:15:35;-0.10;99.90
5059;DHT22;2548;52.050;11.036;2022-11-20T15:18:04;-0.20;99.90
5059;DHT22;2548;52.050;11.036;2022-11-20T15:20:32;-0.30;99.90
5059;DHT22;2548;52.050;11.036;2022-11-20T15:23:00;-0.40;99.90
5059;DHT22;2548;52.050;11.036;2022-11-20T15:25:28;-0.40;99.90
5059;DHT22;2548;52.050;11.036;2022-11-20T15:27:56;-0.40;99.90
5059;DHT22;2548;52.050;11.036;2022-11-20T15:30:24;-0.40;99.90
5059;DHT22;2548;52.050;11.036;2022-11-20T15:32:53;-0.50;99.90
5059;DHT22;2548;52.050;11.036;2022-11-20T15:35:20;-0.50;99.90
5059;DHT22;2548;52.050;11.036;2022-11-20T15:37:48;-0.50;99.90
5059;DHT22;2548;52.050;11.036;2022-11-20T15:40:16;-0.50;99.90
5059;DHT22;2548;52.050;11.036;2022-11-20T15:42:43;-0.60;99.90
5059;DHT22;2548;52.050;11.036;2022-11-20T15:45:30;-0.60;99.90
5059;DHT22;2548;52.050;11.036;2022-11-20T15:48:01;-0.60;99.90
5059;DHT22;2548;52.050;11.036;2022-11-20T15:50:34;-0.50;99.90
5059;DHT22;2548;52.050;11.036;2022-11-20T15:53:03;-0.60;99.90
5059;DHT22;2548;52.050;11.036;2022-11-20T15:55:31;-0.60;99.90
5059;DHT22;2548;52.050;11.036;2022-11-20T15:57:59;-0.60;99.90
5059;DHT22;2548;52.050;11.036;2022-11-20T16:00:26;-0.60;99.90
5059;DHT22;2548;52.050;11.036;2022-11-20T16:02:54;-0.70;99.90
5059;DHT22;2548;52.050;11.036;2022-11-20T16:05:22;-0.60;99.90
5059;DHT22;2548;52.050;11.036;2022-11-20T16:07:50;-0.70;99.90
5059;DHT22;2548;52.050;11.036;2022-11-20T16:10:18;-0.70;99.90
5059;DHT22;2548;52.050;11.036;2022-11-20T16:12:46;-0.70;99.90
5059;DHT22;2548;52.050;11.036;2022-11-20T16:15:31;-0.70;99.90
5059;DHT22;2548;52.050;11.036;2022-11-20T16:18:16;-0.70;99.90
5059;DHT22;2548;52.050;11.036;2022-11-20T16:20:47;-0.70;99.90
5059;DHT22;2548;52.050;11.036;2022-11-20T16:23:15;-0.70;99.90
5059;DHT22;2548;52.050;11.036;2022-11-20T16:25:43;-0.80;99.90